createdAt,value
2017-12-16T00:00:54.045Z,18.58
2017-12-16T00:03:20.384Z,15.35
2017-12-16T00:05:46.684Z,8.15
2017-12-16T00:08:13.059Z,21.42
2017-12-16T00:10:39.403Z,13.27
2017-12-16T00:13:05.703Z,14.35
2017-12-16T00:15:32.026Z,15.30
2017-12-16T00:17:58.662Z,17.23
2017-12-16T00:20:25.029Z,15.40
2017-12-16T00:22:51.330Z,18.00
2017-12-16T00:25:17.693Z,13.20
2017-12-16T00:27:44.016Z,17.87
2017-12-16T00:30:10.341Z,17.00
2017-12-16T00:32:36.620Z,12.60
2017-12-16T00:35:02.953Z,13.50
2017-12-16T00:37:29.276Z,13.32
2017-12-16T00:39:56.347Z,11.50
2017-12-16T00:42:22.683Z,12.60
2017-12-16T00:44:49.742Z,16.27
2017-12-16T00:47:16.046Z,12.60
2017-12-16T00:49:42.418Z,14.70
2017-12-16T00:52:08.736Z,11.30
2017-12-16T00:54:35.050Z,15.50
2017-12-16T00:57:01.382Z,17.30
2017-12-16T00:59:27.730Z,13.98
2017-12-16T01:01:54.055Z,12.68
2017-12-16T01:04:20.417Z,10.95
2017-12-16T01:06:46.756Z,12.32
2017-12-16T01:09:13.816Z,14.40
2017-12-16T01:11:40.919Z,13.75
2017-12-16T01:14:08.250Z,14.90
2017-12-16T01:16:34.562Z,14.18
2017-12-16T01:19:00.900Z,11.95
2017-12-16T01:21:27.253Z,9.35
2017-12-16T01:23:54.333Z,12.70
2017-12-16T01:26:20.652Z,10.20
2017-12-16T01:28:46.990Z,11.77
2017-12-16T01:31:13.361Z,9.43
2017-12-16T01:33:52.592Z,10.00
2017-12-16T01:36:31.217Z,9.85
2017-12-16T01:38:57.512Z,19.77
2017-12-16T01:41:23.844Z,11.65
2017-12-16T01:43:50.213Z,8.30
2017-12-16T01:46:16.501Z,9.15
2017-12-16T01:48:42.836Z,10.55
2017-12-16T01:51:09.183Z,11.07
2017-12-16T01:53:36.279Z,7.12
2017-12-16T01:56:02.610Z,6.35
2017-12-16T01:58:28.954Z,7.32
2017-12-16T02:00:55.266Z,6.82
2017-12-16T02:03:21.611Z,10.45
2017-12-16T02:05:47.945Z,39.10
2017-12-16T02:08:14.285Z,21.48
2017-12-16T02:10:40.605Z,11.60
2017-12-16T02:13:06.945Z,12.77
2017-12-16T02:15:33.327Z,9.80
2017-12-16T02:17:59.658Z,9.80
2017-12-16T02:20:26.010Z,13.70
2017-12-16T02:22:52.320Z,9.32
2017-12-16T02:25:18.656Z,9.60
2017-12-16T02:27:45.011Z,8.65
2017-12-16T02:30:11.330Z,10.50
2017-12-16T02:32:37.668Z,7.78
2017-12-16T02:35:04.029Z,10.15
2017-12-16T02:37:30.340Z,7.72
2017-12-16T02:39:56.689Z,8.48
2017-12-16T02:42:23.029Z,8.95
2017-12-16T02:44:49.359Z,10.25
2017-12-16T02:47:15.709Z,13.48
2017-12-16T02:49:42.778Z,9.52
2017-12-16T02:52:09.100Z,10.82
2017-12-16T02:54:35.453Z,9.38
2017-12-16T02:57:01.787Z,8.85
2017-12-16T02:59:28.131Z,13.18
2017-12-16T03:01:54.426Z,8.82
2017-12-16T03:04:21.477Z,7.07
2017-12-16T03:06:47.846Z,8.18
2017-12-16T03:09:14.199Z,8.63
2017-12-16T03:11:40.538Z,6.85
2017-12-16T03:14:06.890Z,9.35
2017-12-16T03:16:33.941Z,12.82
2017-12-16T03:19:00.272Z,12.75
2017-12-16T03:21:27.342Z,13.48
2017-12-16T03:23:53.676Z,9.77
2017-12-16T03:26:20.002Z,11.93
2017-12-16T03:28:46.354Z,16.23
2017-12-16T03:31:12.645Z,9.23
2017-12-16T03:33:38.991Z,10.20
2017-12-16T03:36:05.359Z,9.25
2017-12-16T03:38:31.689Z,8.43
2017-12-16T03:40:57.994Z,8.68
2017-12-16T03:43:24.365Z,7.10
2017-12-16T03:45:50.706Z,11.10
2017-12-16T03:48:17.026Z,11.65
2017-12-16T03:50:43.380Z,9.75
2017-12-16T03:53:10.434Z,11.12
2017-12-16T03:55:36.845Z,10.93
2017-12-16T03:58:03.170Z,7.20
2017-12-16T04:00:29.499Z,8.20
2017-12-16T04:02:55.849Z,7.97
2017-12-16T04:05:22.898Z,9.27
2017-12-16T04:07:49.967Z,8.05
2017-12-16T04:10:16.364Z,14.07
2017-12-16T04:12:42.701Z,5.60
2017-12-16T04:15:09.097Z,9.57
2017-12-16T04:17:35.413Z,6.25
2017-12-16T04:20:01.787Z,4.97
2017-12-16T04:22:28.163Z,6.25
2017-12-16T04:24:54.547Z,8.90
2017-12-16T04:27:20.917Z,8.25
2017-12-16T04:29:47.311Z,5.37
2017-12-16T04:32:14.378Z,7.28
2017-12-16T04:34:41.532Z,6.65
2017-12-16T04:37:08.593Z,7.43
2017-12-16T04:39:34.935Z,7.40
2017-12-16T04:42:01.295Z,7.00
2017-12-16T04:44:27.649Z,5.80
2017-12-16T04:46:54.011Z,10.93
2017-12-16T04:49:20.319Z,9.05
2017-12-16T04:51:47.368Z,8.05
2017-12-16T04:54:14.439Z,10.25
2017-12-16T04:56:41.489Z,6.80
2017-12-16T04:59:08.134Z,7.93
2017-12-16T05:01:34.422Z,11.57
2017-12-16T05:04:00.703Z,16.58
2017-12-16T05:06:27.015Z,9.25
2017-12-16T05:08:54.102Z,11.38
2017-12-16T05:11:20.390Z,19.60
2017-12-16T05:13:47.444Z,11.98
2017-12-16T05:16:13.725Z,10.77
2017-12-16T05:18:40.028Z,11.82
2017-12-16T05:21:06.363Z,10.18
2017-12-16T05:23:32.646Z,7.80
2017-12-16T05:25:59.687Z,9.18
2017-12-16T05:28:26.046Z,14.43
2017-12-16T05:30:52.321Z,7.97
2017-12-16T05:33:18.580Z,7.50
2017-12-16T05:35:44.891Z,8.40
2017-12-16T05:38:11.183Z,14.38
2017-12-16T05:40:37.489Z,12.10
2017-12-16T05:43:04.505Z,10.02
2017-12-16T05:45:30.820Z,8.57
2017-12-16T05:47:57.131Z,10.45
2017-12-16T05:50:23.522Z,12.55
2017-12-16T05:52:50.890Z,7.25
2017-12-16T05:55:17.153Z,11.50
2017-12-16T05:57:43.476Z,12.50
2017-12-16T06:00:09.799Z,14.05
2017-12-16T06:02:36.832Z,13.77
2017-12-16T06:05:03.177Z,11.25
2017-12-16T06:07:29.473Z,13.00
2017-12-16T06:09:56.522Z,6.95
2017-12-16T06:12:23.574Z,7.97
2017-12-16T06:14:49.865Z,10.55
2017-12-16T06:17:16.180Z,11.10
2017-12-16T06:19:42.509Z,11.45
2017-12-16T06:22:08.826Z,8.30
2017-12-16T06:24:35.218Z,11.85
2017-12-16T06:27:01.535Z,17.90
2017-12-16T06:29:27.830Z,10.82
2017-12-16T06:31:54.190Z,11.18
2017-12-16T06:34:20.916Z,10.30
2017-12-16T06:36:47.403Z,9.18
2017-12-16T06:39:13.779Z,9.70
2017-12-16T06:41:40.107Z,10.77
2017-12-16T06:44:06.422Z,6.70
2017-12-16T06:46:32.756Z,6.28
2017-12-16T06:48:59.075Z,9.88
2017-12-16T06:51:25.399Z,7.97
2017-12-16T06:53:51.705Z,10.27
2017-12-16T06:56:18.009Z,21.83
2017-12-16T06:58:44.302Z,8.70
2017-12-16T07:01:10.643Z,10.00
2017-12-16T07:03:36.940Z,9.85
2017-12-16T07:06:03.236Z,13.27
2017-12-16T07:08:29.536Z,13.70
2017-12-16T07:10:55.880Z,13.00
2017-12-16T07:13:22.202Z,12.50
2017-12-16T07:15:48.524Z,10.98
2017-12-16T07:18:14.824Z,7.15
2017-12-16T07:20:41.098Z,9.13
2017-12-16T07:23:07.413Z,15.70
2017-12-16T07:25:33.712Z,9.35
2017-12-16T07:28:00.044Z,7.25
2017-12-16T07:30:26.364Z,6.53
2017-12-16T07:32:52.682Z,8.85
2017-12-16T07:35:19.762Z,7.37
2017-12-16T07:37:46.493Z,15.00
2017-12-16T07:40:12.733Z,13.77
2017-12-16T07:42:39.040Z,8.35
2017-12-16T07:45:05.353Z,10.98
2017-12-16T07:47:32.381Z,4.70
2017-12-16T07:49:58.732Z,6.85
2017-12-16T07:52:25.769Z,13.60
2017-12-16T07:54:52.020Z,5.95
2017-12-16T07:57:18.356Z,9.18
2017-12-16T07:59:44.658Z,11.43
2017-12-16T08:02:11.736Z,11.70
2017-12-16T08:04:38.103Z,10.07
2017-12-16T08:07:04.413Z,8.70
2017-12-16T08:09:30.722Z,8.48
2017-12-16T08:11:57.009Z,6.68
2017-12-16T08:14:23.302Z,10.43
2017-12-16T08:16:49.596Z,8.77
2017-12-16T08:19:16.628Z,6.03
2017-12-16T08:21:42.939Z,15.10
2017-12-16T08:24:09.205Z,6.28
2017-12-16T08:26:36.354Z,7.22
2017-12-16T08:29:03.384Z,6.75
2017-12-16T08:31:30.417Z,8.82
2017-12-16T08:33:56.705Z,10.50
2017-12-16T08:36:23.013Z,9.77
2017-12-16T08:38:50.011Z,10.75
2017-12-16T08:41:16.289Z,16.45
2017-12-16T08:43:42.597Z,13.95
2017-12-16T08:46:08.879Z,14.02
2017-12-16T08:48:35.174Z,10.02
2017-12-16T08:51:01.468Z,10.38
2017-12-16T08:53:27.742Z,13.98
2017-12-16T08:55:54.037Z,6.57
2017-12-16T08:58:20.326Z,11.63
2017-12-16T09:00:46.654Z,6.62
2017-12-16T09:03:12.941Z,12.45
2017-12-16T09:05:39.945Z,24.77
2017-12-16T09:08:06.253Z,8.27
2017-12-16T09:10:32.546Z,6.60
2017-12-16T09:12:58.836Z,10.02
2017-12-16T09:15:25.079Z,6.20
2017-12-16T09:17:51.326Z,7.85
2017-12-16T09:20:17.615Z,10.63
2017-12-16T09:22:43.877Z,6.05
2017-12-16T09:25:10.198Z,10.50
2017-12-16T09:27:36.454Z,9.25
2017-12-16T09:30:03.542Z,7.53
2017-12-16T09:32:29.809Z,7.12
2017-12-16T09:34:56.107Z,6.82
2017-12-16T09:37:22.406Z,7.20
2017-12-16T09:39:48.723Z,4.97
2017-12-16T09:42:15.757Z,7.40
2017-12-16T09:44:42.779Z,5.20
2017-12-16T09:47:09.077Z,5.03
2017-12-16T09:49:35.347Z,13.18
2017-12-16T09:52:01.643Z,6.90
2017-12-16T09:54:27.920Z,4.22
2017-12-16T09:56:54.199Z,9.15
2017-12-16T09:59:20.833Z,4.68
2017-12-16T10:01:47.149Z,7.07
2017-12-16T10:04:13.459Z,5.40
2017-12-16T10:06:39.781Z,5.50
2017-12-16T10:09:06.077Z,7.03
2017-12-16T10:11:32.392Z,11.60
2017-12-16T10:13:58.676Z,15.60
2017-12-16T10:16:25.713Z,4.85
2017-12-16T10:18:51.999Z,10.00
2017-12-16T10:21:18.305Z,13.50
2017-12-16T10:23:44.654Z,4.35
2017-12-16T10:26:11.035Z,12.05
2017-12-16T10:28:39.578Z,6.75
2017-12-16T10:31:08.198Z,3.83
2017-12-16T10:33:45.551Z,4.55
2017-12-16T10:42:13.864Z,4.62
2017-12-16T10:44:40.127Z,3.70
2017-12-16T10:47:07.247Z,5.43
2017-12-16T10:49:33.572Z,9.50
2017-12-16T10:51:59.907Z,5.90
2017-12-16T11:01:13.042Z,6.97
2017-12-16T11:03:51.567Z,6.07
2017-12-16T11:06:26.116Z,7.40
2017-12-16T11:09:03.713Z,4.37
2017-12-16T11:11:38.145Z,11.82
2017-12-16T11:14:27.313Z,11.93
2017-12-16T11:16:56.108Z,5.47
2017-12-16T11:19:26.503Z,11.88
2017-12-16T11:21:55.591Z,4.12
2017-12-16T11:24:22.659Z,6.28
2017-12-16T11:27:17.306Z,36.13
2017-12-16T11:30:08.004Z,11.68
2017-12-16T11:42:07.910Z,9.60
2017-12-16T11:44:37.421Z,7.93
2017-12-16T11:50:00.287Z,10.00
2017-12-16T11:56:12.426Z,5.90
2017-12-16T11:58:38.773Z,6.55
2017-12-16T12:01:05.873Z,4.87
2017-12-16T12:03:32.304Z,5.43
2017-12-16T12:05:58.657Z,6.68
2017-12-16T12:08:25.038Z,5.60
2017-12-16T12:10:52.154Z,6.95
2017-12-16T12:13:25.366Z,12.07
2017-12-16T12:15:51.653Z,8.02
2017-12-16T12:18:18.775Z,7.60
2017-12-16T12:20:54.840Z,7.22
2017-12-16T12:23:21.180Z,5.40
2017-12-16T12:25:47.559Z,5.18
2017-12-16T12:28:13.854Z,8.63
2017-12-16T12:30:40.195Z,8.32
2017-12-16T12:33:07.569Z,9.35
2017-12-16T12:35:33.934Z,7.72
2017-12-16T12:38:00.301Z,9.77
2017-12-16T12:40:26.587Z,5.80
2017-12-16T12:42:52.865Z,8.65
2017-12-16T12:45:19.207Z,5.53
2017-12-16T12:47:45.507Z,9.90
2017-12-16T12:50:11.805Z,7.90
2017-12-16T12:52:38.113Z,8.57
2017-12-16T12:55:04.429Z,8.57
2017-12-16T12:57:31.486Z,5.95
2017-12-16T12:59:58.533Z,7.20
2017-12-16T13:02:24.842Z,7.15
2017-12-16T13:04:51.114Z,6.03
2017-12-16T13:07:17.416Z,7.32
2017-12-16T13:09:43.684Z,10.23
2017-12-16T13:12:10.006Z,10.20
2017-12-16T13:14:36.321Z,9.95
2017-12-16T13:17:02.652Z,7.00
2017-12-16T13:19:28.982Z,12.02
2017-12-16T13:21:56.010Z,11.57
2017-12-16T13:24:22.308Z,8.07
2017-12-16T13:26:48.594Z,9.50
2017-12-16T13:29:14.910Z,9.50
2017-12-16T13:31:41.193Z,10.75
2017-12-16T13:34:07.511Z,9.95
2017-12-16T13:36:33.803Z,10.40
2017-12-16T13:39:00.930Z,14.43
2017-12-16T13:41:27.362Z,14.85
2017-12-16T13:43:53.688Z,9.80
2017-12-16T13:46:20.039Z,10.13
2017-12-16T13:48:46.350Z,9.95
2017-12-16T13:51:12.668Z,10.98
2017-12-16T13:53:39.719Z,14.57
2017-12-16T13:56:06.810Z,9.93
2017-12-16T13:58:33.396Z,9.30
2017-12-16T14:00:59.826Z,11.85
2017-12-16T14:03:26.189Z,13.55
2017-12-16T14:05:52.553Z,8.13
2017-12-16T14:08:19.604Z,9.70
2017-12-16T14:10:45.887Z,11.45
2017-12-16T14:13:12.212Z,10.75
2017-12-16T14:15:38.546Z,7.47
2017-12-16T14:18:04.863Z,11.23
2017-12-16T14:20:31.132Z,10.13
2017-12-16T14:22:58.218Z,9.98
2017-12-16T14:25:24.516Z,12.05
2017-12-16T14:27:50.819Z,10.38
2017-12-16T14:30:17.142Z,7.47
2017-12-16T14:32:43.471Z,9.15
2017-12-16T14:35:10.541Z,9.50
2017-12-16T14:37:36.885Z,7.65
2017-12-16T14:40:03.301Z,14.95
2017-12-16T14:42:30.348Z,7.78
2017-12-16T14:44:56.734Z,9.65
2017-12-16T14:47:23.298Z,6.95
2017-12-16T14:49:49.654Z,8.65
2017-12-16T14:52:15.975Z,9.23
2017-12-16T14:54:42.286Z,6.87
2017-12-16T14:57:08.597Z,5.93
2017-12-16T14:59:34.914Z,7.07
2017-12-16T15:02:01.313Z,6.85
2017-12-16T15:04:28.332Z,10.38
2017-12-16T15:06:54.650Z,11.75
2017-12-16T15:09:20.977Z,8.70
2017-12-16T15:11:48.612Z,7.40
2017-12-16T15:14:15.002Z,8.00
2017-12-16T15:16:41.283Z,7.12
2017-12-16T15:19:07.597Z,8.40
2017-12-16T15:21:33.909Z,10.30
2017-12-16T15:24:00.970Z,10.05
2017-12-16T15:26:28.003Z,353.60
2017-12-16T15:28:54.394Z,161.88
2017-12-16T15:31:20.708Z,7.97
2017-12-16T15:33:48.080Z,10.52
2017-12-16T15:36:15.133Z,13.62
2017-12-16T15:38:42.201Z,22.87
2017-12-16T15:41:09.312Z,11.12
2017-12-16T15:43:35.622Z,12.90
2017-12-16T15:46:01.943Z,12.23
2017-12-16T15:48:29.322Z,12.98
2017-12-16T15:50:56.410Z,13.85
2017-12-16T15:53:22.706Z,11.90
2017-12-16T15:55:49.786Z,13.57
2017-12-16T15:58:16.093Z,12.93
2017-12-16T16:00:42.789Z,13.35
2017-12-16T16:03:09.230Z,15.98
2017-12-16T16:05:35.563Z,17.92
2017-12-16T16:08:01.903Z,16.75
2017-12-16T16:10:29.013Z,19.73
2017-12-16T16:12:55.342Z,20.77
2017-12-16T16:15:21.697Z,20.83
2017-12-16T16:17:47.998Z,17.52
2017-12-16T16:20:15.079Z,21.73
2017-12-16T16:22:41.446Z,17.73
2017-12-16T16:25:07.805Z,15.25
2017-12-16T16:27:34.210Z,17.42
2017-12-16T16:30:00.508Z,21.58
2017-12-16T16:32:26.855Z,22.52
2017-12-16T16:34:53.170Z,19.75
2017-12-16T16:37:19.517Z,19.48
2017-12-16T16:39:45.840Z,19.25
2017-12-16T16:42:12.177Z,22.73
2017-12-16T16:44:38.509Z,19.27
2017-12-16T16:47:04.817Z,15.63
2017-12-16T16:49:31.138Z,21.52
2017-12-16T16:51:57.555Z,20.23
2017-12-16T16:54:23.906Z,16.65
2017-12-16T16:56:50.188Z,17.12
2017-12-16T16:59:17.204Z,18.83
2017-12-16T17:01:43.511Z,18.65
2017-12-16T17:04:09.833Z,22.40
2017-12-16T17:06:36.914Z,23.52
2017-12-16T17:09:04.133Z,17.67
2017-12-16T17:11:30.486Z,19.20
2017-12-16T17:13:56.811Z,23.15
2017-12-16T17:16:23.173Z,24.67
2017-12-16T17:18:49.524Z,22.58
2017-12-16T17:21:16.566Z,23.80
2017-12-16T17:23:42.925Z,30.83
2017-12-16T17:26:09.212Z,65.68
2017-12-16T17:28:36.254Z,84.28
2017-12-16T17:31:02.598Z,32.28
2017-12-16T17:33:28.968Z,42.78
2017-12-16T17:35:55.317Z,43.90
2017-12-16T17:38:21.674Z,31.23
2017-12-16T17:40:48.008Z,36.28
2017-12-16T17:43:14.577Z,33.50
2017-12-16T17:45:40.933Z,27.33
2017-12-16T17:48:08.070Z,23.17
2017-12-16T17:50:34.401Z,28.73
2017-12-16T17:53:00.765Z,34.05
2017-12-16T17:55:27.130Z,32.15
2017-12-16T17:57:54.173Z,36.42
2017-12-16T18:00:20.509Z,38.22
2017-12-16T18:02:46.903Z,37.22
2017-12-16T18:05:17.002Z,39.45
2017-12-16T18:07:44.049Z,40.78
2017-12-16T18:10:10.725Z,37.22
2017-12-16T18:12:37.814Z,35.53
2017-12-16T18:15:04.139Z,35.00
2017-12-16T18:17:30.487Z,40.08
2017-12-16T18:19:56.816Z,49.63
2017-12-16T18:22:23.891Z,41.28
2017-12-16T18:24:50.230Z,41.63
2017-12-16T18:27:16.615Z,44.60
2017-12-16T18:29:42.962Z,38.17
2017-12-16T18:32:09.286Z,36.83
2017-12-16T18:34:35.650Z,38.13
2017-12-16T18:37:02.033Z,42.55
2017-12-16T18:39:29.066Z,43.50
2017-12-16T18:41:55.383Z,41.28
2017-12-16T18:44:21.732Z,44.80
2017-12-16T18:46:48.075Z,44.28
2017-12-16T18:49:14.389Z,46.35
2017-12-16T18:51:40.764Z,39.50
2017-12-16T18:54:07.191Z,43.50
2017-12-16T18:56:33.602Z,44.13
2017-12-16T18:58:59.980Z,49.83
2017-12-16T19:01:26.285Z,47.03
2017-12-16T19:03:53.408Z,41.37
2017-12-16T19:06:19.771Z,49.20
2017-12-16T19:08:47.162Z,39.95
2017-12-16T19:11:13.496Z,45.15
2017-12-16T19:13:40.654Z,45.88
2017-12-16T19:16:07.759Z,41.42
2017-12-16T19:18:34.117Z,48.78
2017-12-16T19:21:00.536Z,45.83
2017-12-16T19:23:26.938Z,35.20
2017-12-16T19:25:54.058Z,39.25
2017-12-16T19:28:20.470Z,33.80
2017-12-16T19:30:46.874Z,46.78
2017-12-16T19:33:13.173Z,40.63
2017-12-16T19:35:39.629Z,39.33
2017-12-16T19:38:06.769Z,44.28
2017-12-16T19:40:33.109Z,46.20
2017-12-16T19:42:59.461Z,45.20
2017-12-16T19:45:25.841Z,39.33
2017-12-16T19:47:52.227Z,46.70
2017-12-16T19:50:19.420Z,39.22
2017-12-16T19:52:45.824Z,50.70
2017-12-16T19:55:12.264Z,49.47
2017-12-16T19:57:38.664Z,38.17
2017-12-16T20:00:05.195Z,38.13
2017-12-16T20:02:31.820Z,32.00
2017-12-16T20:04:58.491Z,42.10
2017-12-16T20:07:25.196Z,35.70
2017-12-16T20:09:51.800Z,39.13
2017-12-16T20:12:18.466Z,36.97
2017-12-16T20:14:45.898Z,40.42
2017-12-16T20:17:12.584Z,44.28
2017-12-16T20:19:40.068Z,37.08
2017-12-16T20:22:07.536Z,39.83
2017-12-16T20:24:35.024Z,44.95
2017-12-16T20:27:01.768Z,44.08
2017-12-16T20:29:28.795Z,43.40
2017-12-16T20:31:56.248Z,37.65
2017-12-16T20:34:22.925Z,36.55
2017-12-16T20:36:50.434Z,53.00
2017-12-16T20:39:17.088Z,40.67
2017-12-16T20:41:43.800Z,40.00
2017-12-16T20:44:11.223Z,55.17
2017-12-16T20:46:37.987Z,55.72
2017-12-16T20:49:04.688Z,50.97
2017-12-16T20:51:32.118Z,85.93
2017-12-16T20:53:58.823Z,68.65
2017-12-16T20:56:25.552Z,56.67
2017-12-16T20:58:52.942Z,53.63
2017-12-16T21:01:19.864Z,43.72
2017-12-16T21:03:46.467Z,76.75
2017-12-16T21:06:13.105Z,90.30
2017-12-16T21:08:39.798Z,68.45
2017-12-16T21:11:06.511Z,73.30
2017-12-16T21:13:33.252Z,97.40
2017-12-16T21:15:59.993Z,75.15
2017-12-16T21:18:26.718Z,78.10
2017-12-16T21:20:53.339Z,74.32
2017-12-16T21:23:21.045Z,76.62
2017-12-16T21:25:47.464Z,60.10
2017-12-16T21:28:13.855Z,41.67
2017-12-16T21:30:40.257Z,51.00
2017-12-16T21:33:06.703Z,61.50
2017-12-16T21:35:33.097Z,57.75
2017-12-16T21:37:59.429Z,54.45
2017-12-16T21:40:25.763Z,63.30
2017-12-16T21:42:52.113Z,67.65
2017-12-16T21:45:18.493Z,57.92
2017-12-16T21:47:45.584Z,68.65
2017-12-16T21:50:11.961Z,101.43
2017-12-16T21:52:38.296Z,62.05
2017-12-16T21:55:04.632Z,53.08
2017-12-16T21:57:31.004Z,43.90
2017-12-16T21:59:57.353Z,45.28
2017-12-16T22:02:23.753Z,44.95
2017-12-16T22:04:50.096Z,48.22
2017-12-16T22:07:16.414Z,43.33
2017-12-16T22:09:43.476Z,59.40
2017-12-16T22:12:09.838Z,55.38
2017-12-16T22:14:36.114Z,38.40
2017-12-16T22:17:02.446Z,56.55
2017-12-16T22:19:28.751Z,72.12
2017-12-16T22:21:55.718Z,47.55
2017-12-16T22:24:21.972Z,43.63
2017-12-16T22:26:48.348Z,56.30
2017-12-16T22:29:14.711Z,51.13
2017-12-16T22:31:40.979Z,60.58
2017-12-16T22:34:08.007Z,65.22
2017-12-16T22:36:34.319Z,56.92
2017-12-16T22:39:00.673Z,49.42
2017-12-16T22:41:26.988Z,48.30
2017-12-16T22:43:53.332Z,38.38
2017-12-16T22:46:19.659Z,46.05
2017-12-16T22:48:46.008Z,51.00
2017-12-16T22:51:12.313Z,56.78
2017-12-16T22:53:38.599Z,62.35
2017-12-16T22:56:04.953Z,53.65
2017-12-16T22:58:31.990Z,45.12
2017-12-16T23:00:58.289Z,43.78
2017-12-16T23:03:24.643Z,45.35
2017-12-16T23:05:50.962Z,45.92
2017-12-16T23:08:17.281Z,43.45
2017-12-16T23:10:43.613Z,47.08
2017-12-16T23:13:09.892Z,43.03
2017-12-16T23:15:36.220Z,50.42
2017-12-16T23:18:02.515Z,48.45
2017-12-16T23:20:29.572Z,51.85
2017-12-16T23:22:56.634Z,45.70
2017-12-16T23:25:23.702Z,44.92
2017-12-16T23:27:50.012Z,50.83
2017-12-16T23:30:16.322Z,53.87
2017-12-16T23:32:42.656Z,41.97
2017-12-16T23:35:08.992Z,41.25
2017-12-16T23:37:35.335Z,45.92
2017-12-16T23:40:01.639Z,47.30
2017-12-16T23:42:27.979Z,42.15
2017-12-16T23:44:54.253Z,41.33
2017-12-16T23:47:20.644Z,36.15
2017-12-16T23:49:46.948Z,39.58
2017-12-16T23:52:13.273Z,40.20
2017-12-16T23:54:39.583Z,38.83
2017-12-16T23:57:05.941Z,35.45
2017-12-16T23:59:33.012Z,41.10
